sensor_id;sensor_type;location;lat;lon;timestamp;temperature;humidity
23769;DHT22;12064;50.890;5.424;2022-09-21T00:02:12;25.10;65.60
23769;DHT22;12064;50.890;5.424;2022-09-21T00:11:04;25.20;65.60
23769;DHT22;12064;50.890;5.424;2022-09-21T00:19:54;25.10;65.60
23769;DHT22;12064;50.890;5.424;2022-09-21T00:28:45;25.10;65.60
23769;DHT22;12064;50.890;5.424;2022-09-21T00:37:36;25.20;65.50
23769;DHT22;12064;50.890;5.424;2022-09-21T00:46:30;25.10;65.50
23769;DHT22;12064;50.890;5.424;2022-09-21T00:55:28;25.10;65.40
23769;DHT22;12064;50.890;5.424;2022-09-21T01:04:28;25.10;65.60
23769;DHT22;12064;50.890;5.424;2022-09-21T01:32:27;24.90;65.70
23769;DHT22;12064;50.890;5.424;2022-09-21T01:41:24;25.00;65.70
23769;DHT22;12064;50.890;5.424;2022-09-21T01:50:18;25.00;65.60
23769;DHT22;12064;50.890;5.424;2022-09-21T01:59:25;25.10;65.60
23769;DHT22;12064;50.890;5.424;2022-09-21T02:08:35;24.90;65.50
23769;DHT22;12064;50.890;5.424;2022-09-21T02:17:38;24.90;65.80
23769;DHT22;12064;50.890;5.424;2022-09-21T02:26:38;24.90;65.50
23769;DHT22;12064;50.890;5.424;2022-09-21T02:36:04;25.00;65.40
23769;DHT22;12064;50.890;5.424;2022-09-21T02:45:23;24.80;65.70
23769;DHT22;12064;50.890;5.424;2022-09-21T02:54:23;24.90;65.70
23769;DHT22;12064;50.890;5.424;2022-09-21T03:03:28;24.90;65.70
23769;DHT22;12064;50.890;5.424;2022-09-21T03:12:19;24.80;65.60
23769;DHT22;12064;50.890;5.424;2022-09-21T03:21:11;24.90;65.60
23769;DHT22;12064;50.890;5.424;2022-09-21T03:30:02;25.00;65.50
23769;DHT22;12064;50.890;5.424;2022-09-21T03:38:53;24.90;65.30
23769;DHT22;12064;50.890;5.424;2022-09-21T03:48:01;25.00;65.40
23769;DHT22;12064;50.890;5.424;2022-09-21T03:56:52;24.80;65.70
23769;DHT22;12064;50.890;5.424;2022-09-21T04:05:43;25.00;65.30
23769;DHT22;12064;50.890;5.424;2022-09-21T04:14:34;24.90;65.30
23769;DHT22;12064;50.890;5.424;2022-09-21T04:23:27;24.90;65.50
23769;DHT22;12064;50.890;5.424;2022-09-21T04:32:18;25.00;65.30
23769;DHT22;12064;50.890;5.424;2022-09-21T04:41:12;25.00;65.40
23769;DHT22;12064;50.890;5.424;2022-09-21T04:50:19;24.90;65.50
23769;DHT22;12064;50.890;5.424;2022-09-21T04:59:10;24.90;65.50
23769;DHT22;12064;50.890;5.424;2022-09-21T05:08:01;24.70;66.00
23769;DHT22;12064;50.890;5.424;2022-09-21T05:16:54;24.90;66.00
23769;DHT22;12064;50.890;5.424;2022-09-21T05:25:48;25.00;65.40
23769;DHT22;12064;50.890;5.424;2022-09-21T05:44:26;24.90;64.40
23769;DHT22;12064;50.890;5.424;2022-09-21T06:12:11;24.80;63.80
23769;DHT22;12064;50.890;5.424;2022-09-21T06:21:02;25.00;63.90
23769;DHT22;12064;50.890;5.424;2022-09-21T06:29:52;24.90;63.90
23769;DHT22;12064;50.890;5.424;2022-09-21T06:38:43;24.90;64.00
23769;DHT22;12064;50.890;5.424;2022-09-21T06:47:36;24.90;64.10
23769;DHT22;12064;50.890;5.424;2022-09-21T06:56:30;24.90;64.10
23769;DHT22;12064;50.890;5.424;2022-09-21T07:05:21;25.00;64.10
23769;DHT22;12064;50.890;5.424;2022-09-21T07:14:12;24.90;64.10
23769;DHT22;12064;50.890;5.424;2022-09-21T07:23:14;24.90;64.20
23769;DHT22;12064;50.890;5.424;2022-09-21T07:32:05;24.80;64.30
23769;DHT22;12064;50.890;5.424;2022-09-21T07:40:56;25.00;64.10
23769;DHT22;12064;50.890;5.424;2022-09-21T07:49:49;24.90;64.20
23769;DHT22;12064;50.890;5.424;2022-09-21T07:58:41;24.90;64.10
23769;DHT22;12064;50.890;5.424;2022-09-21T08:07:50;24.90;64.20
23769;DHT22;12064;50.890;5.424;2022-09-21T08:16:45;24.90;64.40
23769;DHT22;12064;50.890;5.424;2022-09-21T08:25:36;24.80;65.30
23769;DHT22;12064;50.890;5.424;2022-09-21T08:34:29;24.80;64.60
23769;DHT22;12064;50.890;5.424;2022-09-21T08:43:39;24.90;64.40
23769;DHT22;12064;50.890;5.424;2022-09-21T08:52:31;24.80;64.50
23769;DHT22;12064;50.890;5.424;2022-09-21T09:01:50;25.00;64.30
23769;DHT22;12064;50.890;5.424;2022-09-21T09:20:39;24.80;64.60
23769;DHT22;12064;50.890;5.424;2022-09-21T09:39:12;24.70;65.00
23769;DHT22;12064;50.890;5.424;2022-09-21T09:57:31;24.60;65.30
23769;DHT22;12064;50.890;5.424;2022-09-21T10:06:32;24.60;65.40
23769;DHT22;12064;50.890;5.424;2022-09-21T10:15:23;24.60;65.50
23769;DHT22;12064;50.890;5.424;2022-09-21T10:24:20;24.80;65.20
23769;DHT22;12064;50.890;5.424;2022-09-21T10:33:20;24.60;65.60
23769;DHT22;12064;50.890;5.424;2022-09-21T10:42:13;24.70;65.40
23769;DHT22;12064;50.890;5.424;2022-09-21T10:51:05;24.70;65.40
23769;DHT22;12064;50.890;5.424;2022-09-21T11:18:47;24.70;65.40
23769;DHT22;12064;50.890;5.424;2022-09-21T11:27:41;24.70;65.60
23769;DHT22;12064;50.890;5.424;2022-09-21T12:04:52;24.60;65.90
23769;DHT22;12064;50.890;5.424;2022-09-21T12:23:22;24.60;66.20
23769;DHT22;12064;50.890;5.424;2022-09-21T12:33:02;24.60;66.00
23769;DHT22;12064;50.890;5.424;2022-09-21T12:41:43;24.70;65.80
23769;DHT22;12064;50.890;5.424;2022-09-21T12:50:46;24.60;66.00
23769;DHT22;12064;50.890;5.424;2022-09-21T13:08:50;24.60;66.30
23769;DHT22;12064;50.890;5.424;2022-09-21T13:17:45;24.70;66.00
23769;DHT22;12064;50.890;5.424;2022-09-21T13:26:55;24.60;66.30
23769;DHT22;12064;50.890;5.424;2022-09-21T13:35:49;24.50;66.20
23769;DHT22;12064;50.890;5.424;2022-09-21T13:44:43;24.60;66.30
23769;DHT22;12064;50.890;5.424;2022-09-21T13:53:39;24.60;66.50
23769;DHT22;12064;50.890;5.424;2022-09-21T14:02:33;24.60;66.60
23769;DHT22;12064;50.890;5.424;2022-09-21T14:11:28;24.60;66.60
23769;DHT22;12064;50.890;5.424;2022-09-21T14:20:31;24.70;66.70
23769;DHT22;12064;50.890;5.424;2022-09-21T14:29:44;24.60;66.90
23769;DHT22;12064;50.890;5.424;2022-09-21T14:38:44;24.50;67.00
23769;DHT22;12064;50.890;5.424;2022-09-21T15:06:35;24.70;67.00
23769;DHT22;12064;50.890;5.424;2022-09-21T15:25:02;24.70;66.90
23769;DHT22;12064;50.890;5.424;2022-09-21T15:33:56;24.80;66.70
23769;DHT22;12064;50.890;5.424;2022-09-21T15:52:53;24.60;67.20
23769;DHT22;12064;50.890;5.424;2022-09-21T16:01:23;24.70;67.10
23769;DHT22;12064;50.890;5.424;2022-09-21T16:10:38;24.70;67.00
23769;DHT22;12064;50.890;5.424;2022-09-21T16:28:56;24.90;67.20
23769;DHT22;12064;50.890;5.424;2022-09-21T16:37:46;24.90;67.10
23769;DHT22;12064;50.890;5.424;2022-09-21T16:47:01;24.70;67.60
23769;DHT22;12064;50.890;5.424;2022-09-21T16:55:53;24.70;67.80
23769;DHT22;12064;50.890;5.424;2022-09-21T17:04:50;24.80;67.40
23769;DHT22;12064;50.890;5.424;2022-09-21T17:13:52;24.70;67.80
23769;DHT22;12064;50.890;5.424;2022-09-21T17:22:53;24.70;67.60
23769;DHT22;12064;50.890;5.424;2022-09-21T17:31:44;24.80;67.60
23769;DHT22;12064;50.890;5.424;2022-09-21T17:40:40;24.80;67.60
23769;DHT22;12064;50.890;5.424;2022-09-21T17:49:32;24.80;67.50
23769;DHT22;12064;50.890;5.424;2022-09-21T18:07:16;24.90;67.20
23769;DHT22;12064;50.890;5.424;2022-09-21T18:25:15;24.80;67.50
23769;DHT22;12064;50.890;5.424;2022-09-21T18:44:22;24.90;67.30
23769;DHT22;12064;50.890;5.424;2022-09-21T19:02:30;24.90;67.10
23769;DHT22;12064;50.890;5.424;2022-09-21T19:11:32;24.90;67.00
23769;DHT22;12064;50.890;5.424;2022-09-21T19:20:55;24.80;67.10
23769;DHT22;12064;50.890;5.424;2022-09-21T19:29:59;24.90;68.00
23769;DHT22;12064;50.890;5.424;2022-09-21T19:38:51;25.00;66.80
23769;DHT22;12064;50.890;5.424;2022-09-21T19:47:52;25.10;66.80
23769;DHT22;12064;50.890;5.424;2022-09-21T19:56:47;24.90;66.80
23769;DHT22;12064;50.890;5.424;2022-09-21T20:15:45;24.70;68.10
23769;DHT22;12064;50.890;5.424;2022-09-21T20:24:57;25.30;67.80
23769;DHT22;12064;50.890;5.424;2022-09-21T20:33:50;25.30;68.90
23769;DHT22;12064;50.890;5.424;2022-09-21T20:42:41;25.40;68.90
23769;DHT22;12064;50.890;5.424;2022-09-21T20:52:08;25.50;68.90
23769;DHT22;12064;50.890;5.424;2022-09-21T21:01:04;25.50;69.10
23769;DHT22;12064;50.890;5.424;2022-09-21T21:09:55;25.50;68.90
23769;DHT22;12064;50.890;5.424;2022-09-21T21:18:58;25.80;69.30
23769;DHT22;12064;50.890;5.424;2022-09-21T21:27:52;25.60;69.90
23769;DHT22;12064;50.890;5.424;2022-09-21T21:36:47;25.60;67.10
23769;DHT22;12064;50.890;5.424;2022-09-21T21:45:38;25.60;67.20
23769;DHT22;12064;50.890;5.424;2022-09-21T21:54:29;25.50;66.80
23769;DHT22;12064;50.890;5.424;2022-09-21T22:03:19;25.50;66.40
23769;DHT22;12064;50.890;5.424;2022-09-21T22:12:13;25.50;66.60
23769;DHT22;12064;50.890;5.424;2022-09-21T22:29:55;25.30;66.40
23769;DHT22;12064;50.890;5.424;2022-09-21T22:38:55;25.30;66.30
23769;DHT22;12064;50.890;5.424;2022-09-21T22:47:46;25.20;66.50
23769;DHT22;12064;50.890;5.424;2022-09-21T22:56:40;25.30;66.30
23769;DHT22;12064;50.890;5.424;2022-09-21T23:05:30;25.30;66.30
23769;DHT22;12064;50.890;5.424;2022-09-21T23:14:22;25.30;67.10
23769;DHT22;12064;50.890;5.424;2022-09-21T23:23:13;25.30;66.20
23769;DHT22;12064;50.890;5.424;2022-09-21T23:32:07;25.20;66.00
23769;DHT22;12064;50.890;5.424;2022-09-21T23:41:21;25.20;66.10
23769;DHT22;12064;50.890;5.424;2022-09-21T23:50:12;25.10;66.40
23769;DHT22;12064;50.890;5.424;2022-09-21T23:59:02;25.10;66.20
